createdAt,value
2022-11-13T00:02:52.892Z,4.99
2022-11-13T00:08:13.247Z,4.90
2022-11-13T00:13:34.557Z,4.73
2022-11-13T00:18:54.785Z,4.65
2022-11-13T00:24:14.743Z,4.62
2022-11-13T00:29:34.840Z,4.59
2022-11-13T00:34:54.943Z,4.52
2022-11-13T00:40:15.372Z,4.47
2022-11-13T00:45:35.568Z,4.36
2022-11-13T00:50:56.668Z,4.28
2022-11-13T00:56:16.827Z,4.21
2022-11-13T01:01:37.174Z,4.21
2022-11-13T01:06:57.125Z,4.20
2022-11-13T01:12:17.607Z,4.16
2022-11-13T01:17:38.090Z,4.14
2022-11-13T01:22:58.103Z,4.11
2022-11-13T01:28:18.104Z,4.04
2022-11-13T01:33:38.894Z,3.96
2022-11-13T01:38:59.041Z,3.94
2022-11-13T01:44:20.136Z,3.89
2022-11-13T01:49:44.678Z,3.86
2022-11-13T01:55:11.710Z,3.87
2022-11-13T02:00:31.648Z,3.85
2022-11-13T02:05:54.843Z,3.84
2022-11-13T02:11:15.123Z,3.84
2022-11-13T02:16:37.830Z,3.83
2022-11-13T02:22:23.576Z,3.76
2022-11-13T02:27:49.277Z,3.68
2022-11-13T02:33:33.504Z,3.68
2022-11-13T02:38:55.569Z,3.71
2022-11-13T02:44:15.588Z,3.71
2022-11-13T02:49:35.699Z,3.69
2022-11-13T02:54:55.879Z,3.68
2022-11-13T03:00:16.366Z,3.67
2022-11-13T03:05:36.423Z,3.71
2022-11-13T03:10:56.570Z,3.74
2022-11-13T03:16:19.295Z,3.78
2022-11-13T03:21:39.110Z,3.80
2022-11-13T03:26:59.064Z,3.76
2022-11-13T03:32:18.994Z,3.71
2022-11-13T03:37:39.246Z,3.69
2022-11-13T03:42:59.392Z,3.61
2022-11-13T03:48:19.344Z,3.59
2022-11-13T03:53:39.411Z,3.58
2022-11-13T03:58:59.599Z,3.57
2022-11-13T04:04:19.744Z,3.56
2022-11-13T04:09:40.056Z,3.57
2022-11-13T04:15:00.242Z,3.50
2022-11-13T04:20:20.691Z,3.41
2022-11-13T04:25:40.783Z,3.42
2022-11-13T04:31:01.054Z,3.35
2022-11-13T04:36:21.233Z,3.26
2022-11-13T04:42:00.099Z,3.17
2022-11-13T04:47:20.499Z,3.10
2022-11-13T04:52:41.049Z,3.07
2022-11-13T04:58:00.935Z,3.02
2022-11-13T05:03:20.877Z,2.93
2022-11-13T05:08:41.044Z,2.85
2022-11-13T05:14:03.625Z,2.75
2022-11-13T05:19:23.801Z,2.74
2022-11-13T05:24:44.015Z,2.70
2022-11-13T05:30:04.780Z,2.58
2022-11-13T05:35:25.047Z,2.50
2022-11-13T05:40:45.308Z,2.48
2022-11-13T05:46:06.590Z,2.41
2022-11-13T05:51:32.449Z,2.35
2022-11-13T05:56:52.497Z,2.34
2022-11-13T06:02:12.750Z,2.32
2022-11-13T06:07:32.851Z,2.28
2022-11-13T06:12:55.178Z,2.29
2022-11-13T06:18:15.381Z,2.26
2022-11-13T06:23:37.555Z,2.15
2022-11-13T06:28:58.844Z,2.04
2022-11-13T06:34:19.012Z,1.90
2022-11-13T06:39:39.296Z,1.82
2022-11-13T06:44:59.005Z,1.72
2022-11-13T06:50:18.935Z,1.58
2022-11-13T06:55:46.955Z,1.49
2022-11-13T07:01:11.297Z,1.47
2022-11-13T07:06:33.876Z,1.48
2022-11-13T07:11:56.729Z,1.51
2022-11-13T07:17:16.855Z,1.55
2022-11-13T07:22:36.943Z,1.61
2022-11-13T07:27:57.231Z,1.67
2022-11-13T07:33:17.462Z,1.77
2022-11-13T07:38:37.929Z,1.91
2022-11-13T07:43:57.912Z,2.00
2022-11-13T07:49:17.824Z,2.14
2022-11-13T07:54:38.093Z,2.26
2022-11-13T07:59:58.140Z,2.32
2022-11-13T08:05:18.870Z,2.25
2022-11-13T08:10:39.119Z,2.23
2022-11-13T08:16:00.504Z,2.20
2022-11-13T08:21:21.288Z,2.28
2022-11-13T08:26:41.871Z,2.41
2022-11-13T08:32:02.020Z,2.48
2022-11-13T08:37:21.936Z,2.63
2022-11-13T08:42:41.890Z,2.80
2022-11-13T08:48:03.530Z,2.86
2022-11-13T08:53:24.723Z,2.93
2022-11-13T08:58:44.832Z,3.10
2022-11-13T09:04:04.911Z,3.27
2022-11-13T09:09:25.539Z,3.17
2022-11-13T09:14:45.571Z,3.21
2022-11-13T09:20:09.972Z,3.33
2022-11-13T09:25:37.822Z,3.54
2022-11-13T09:30:58.315Z,3.97
2022-11-13T09:36:18.567Z,4.13
2022-11-13T09:41:48.166Z,4.26
2022-11-13T09:47:23.986Z,4.37
2022-11-13T09:52:45.832Z,4.40
2022-11-13T09:58:39.630Z,4.40
2022-11-13T10:04:04.693Z,4.47
2022-11-13T10:09:55.391Z,4.59
2022-11-13T10:15:17.589Z,4.80
2022-11-13T10:20:43.256Z,4.87
2022-11-13T10:26:24.832Z,4.99
2022-11-13T10:31:47.960Z,5.11
2022-11-13T10:37:22.105Z,5.24
2022-11-13T10:42:42.171Z,5.46
2022-11-13T10:48:04.760Z,5.65
2022-11-13T10:53:27.494Z,5.77
2022-11-13T10:59:11.178Z,5.88
2022-11-13T11:04:31.412Z,6.06
2022-11-13T11:09:52.008Z,6.22
2022-11-13T11:15:26.195Z,6.40
2022-11-13T11:20:54.344Z,6.54
2022-11-13T11:26:23.212Z,6.70
2022-11-13T11:32:01.337Z,6.93
2022-11-13T11:37:24.324Z,7.04
2022-11-13T11:43:12.006Z,7.28
2022-11-13T11:48:34.239Z,7.49
2022-11-13T11:54:01.118Z,7.69
2022-11-13T11:59:45.414Z,7.88
2022-11-13T12:05:44.072Z,7.99
2022-11-13T12:11:18.726Z,8.13
2022-11-13T12:16:45.554Z,8.22
2022-11-13T12:22:46.901Z,8.35
2022-11-13T12:28:29.194Z,8.50
2022-11-13T12:34:01.076Z,8.71
2022-11-13T12:39:53.720Z,8.86
2022-11-13T12:45:24.050Z,8.95
2022-11-13T12:50:43.928Z,9.09
2022-11-13T12:56:06.396Z,9.19
2022-11-13T13:01:32.600Z,9.29
2022-11-13T13:07:23.514Z,9.34
2022-11-13T13:13:02.102Z,9.40
2022-11-13T13:18:37.324Z,9.38
2022-11-13T13:24:07.232Z,9.24
2022-11-13T13:29:29.443Z,9.17
2022-11-13T13:34:58.782Z,9.16
2022-11-13T13:40:49.240Z,9.20
2022-11-13T13:46:24.656Z,9.17
2022-11-13T13:51:48.129Z,9.19
2022-11-13T13:57:14.344Z,9.19
2022-11-13T14:02:34.423Z,9.22
2022-11-13T14:07:56.804Z,9.21
2022-11-13T14:13:28.042Z,9.22
2022-11-13T14:18:48.357Z,9.27
2022-11-13T14:24:16.869Z,9.28
2022-11-13T14:30:03.064Z,9.24
2022-11-13T14:35:25.664Z,9.21
2022-11-13T14:40:48.732Z,9.17
2022-11-13T14:46:28.247Z,9.15
2022-11-13T14:51:54.953Z,9.15
2022-11-13T14:57:15.895Z,9.07
2022-11-13T15:02:36.148Z,9.00
2022-11-13T15:07:57.537Z,8.87
2022-11-13T15:13:18.414Z,8.80
2022-11-13T15:18:38.821Z,8.63
2022-11-13T15:24:01.078Z,8.50
2022-11-13T15:29:21.309Z,8.36
2022-11-13T15:34:41.482Z,8.12
2022-11-13T15:40:01.890Z,7.87
2022-11-13T15:45:22.129Z,7.72
2022-11-13T15:50:42.268Z,7.47
2022-11-13T15:56:05.084Z,7.12
2022-11-13T16:01:25.556Z,6.79
2022-11-13T16:06:46.122Z,6.41
2022-11-13T16:12:06.279Z,6.05
2022-11-13T16:17:26.575Z,5.74
2022-11-13T16:22:47.020Z,5.41
2022-11-13T16:28:15.364Z,5.07
2022-11-13T16:33:35.475Z,4.84
2022-11-13T16:38:55.695Z,4.59
2022-11-13T16:44:15.818Z,4.36
2022-11-13T16:49:35.617Z,4.15
2022-11-13T16:54:55.520Z,3.98
2022-11-13T17:00:17.829Z,3.86
2022-11-13T17:05:37.768Z,3.73
2022-11-13T17:10:59.543Z,3.57
2022-11-13T17:16:21.588Z,3.47
2022-11-13T17:21:44.754Z,3.59
2022-11-13T17:27:05.218Z,3.88
2022-11-13T17:32:25.251Z,4.11
2022-11-13T17:37:45.502Z,4.32
2022-11-13T17:43:07.891Z,4.50
2022-11-13T17:48:31.581Z,4.57
2022-11-13T17:53:51.780Z,4.65
2022-11-13T17:59:11.984Z,4.68
2022-11-13T18:04:32.293Z,4.72
2022-11-13T18:09:52.104Z,4.85
2022-11-13T18:15:12.200Z,4.90
2022-11-13T18:20:33.332Z,4.96
2022-11-13T18:25:53.907Z,5.01
2022-11-13T18:31:17.790Z,5.02
2022-11-13T18:36:37.716Z,5.02
2022-11-13T18:42:00.320Z,5.07
2022-11-13T18:47:20.382Z,5.10
2022-11-13T18:52:40.554Z,5.19
2022-11-13T18:58:00.293Z,5.24
2022-11-13T19:03:21.007Z,5.30
2022-11-13T19:08:41.902Z,5.32
2022-11-13T19:14:02.215Z,5.37
2022-11-13T19:19:23.894Z,5.41
2022-11-13T19:24:43.751Z,5.44
2022-11-13T19:30:04.524Z,5.48
2022-11-13T19:35:26.042Z,5.50
2022-11-13T19:40:47.832Z,5.56
2022-11-13T19:46:10.504Z,5.54
2022-11-13T19:51:30.830Z,5.61
2022-11-13T19:56:50.887Z,5.65
2022-11-13T20:02:10.870Z,5.63
2022-11-13T20:07:30.760Z,5.62
2022-11-13T20:12:51.107Z,5.65
2022-11-13T20:18:10.921Z,5.64
2022-11-13T20:23:31.012Z,5.65
2022-11-13T20:28:51.224Z,5.59
2022-11-13T20:34:11.513Z,5.61
2022-11-13T20:39:31.760Z,5.61
2022-11-13T20:44:51.596Z,5.62
2022-11-13T20:50:11.524Z,5.64
2022-11-13T20:55:31.471Z,5.55
2022-11-13T21:00:51.549Z,5.55
2022-11-13T21:06:15.559Z,5.55
2022-11-13T21:11:35.571Z,5.50
2022-11-13T21:16:55.729Z,5.54
2022-11-13T21:22:15.794Z,5.61
2022-11-13T21:27:36.012Z,5.61
2022-11-13T21:32:59.815Z,5.63
2022-11-13T21:38:19.740Z,5.63
2022-11-13T21:43:39.891Z,5.64
2022-11-13T21:49:04.009Z,5.67
2022-11-13T21:54:24.253Z,5.70
2022-11-13T21:59:44.599Z,5.76
2022-11-13T22:05:05.475Z,5.75
2022-11-13T22:10:25.334Z,5.76
2022-11-13T22:15:45.477Z,5.81
2022-11-13T22:21:08.556Z,5.81
2022-11-13T22:26:29.634Z,5.71
2022-11-13T22:31:49.411Z,5.69
2022-11-13T22:37:09.468Z,5.73
2022-11-13T22:42:29.506Z,5.72
2022-11-13T22:47:49.636Z,5.68
2022-11-13T22:53:10.256Z,5.65
2022-11-13T22:58:30.826Z,5.61
2022-11-13T23:03:52.646Z,5.60
2022-11-13T23:09:12.692Z,5.62
2022-11-13T23:14:33.381Z,5.64
2022-11-13T23:19:53.648Z,5.66
2022-11-13T23:25:13.450Z,5.64
2022-11-13T23:30:33.537Z,5.65
2022-11-13T23:35:54.279Z,5.58
2022-11-13T23:41:14.739Z,5.64
2022-11-13T23:46:34.837Z,5.66
2022-11-13T23:51:54.690Z,5.66
2022-11-13T23:57:14.820Z,5.65
